createdAt,value
2022-09-01T00:00:06.847Z,22.32
2022-09-01T00:02:37.117Z,22.35
2022-09-01T00:05:08.232Z,22.28
2022-09-01T00:07:36.689Z,22.25
2022-09-01T00:10:08.221Z,22.28
2022-09-01T00:12:38.407Z,22.33
2022-09-01T00:15:09.280Z,22.30
2022-09-01T00:17:37.233Z,22.27
2022-09-01T00:20:08.434Z,22.31
2022-09-01T00:22:37.488Z,22.26
2022-09-01T00:25:08.197Z,22.25
2022-09-01T00:27:37.217Z,22.18
2022-09-01T00:30:07.294Z,22.17
2022-09-01T00:32:37.642Z,22.20
2022-09-01T00:35:08.781Z,22.24
2022-09-01T00:37:37.390Z,22.25
2022-09-01T00:40:09.842Z,22.24
2022-09-01T00:42:40.127Z,22.27
2022-09-01T00:45:11.191Z,22.21
2022-09-01T00:47:41.800Z,22.21
2022-09-01T00:50:16.211Z,22.19
2022-09-01T00:52:49.675Z,22.19
2022-09-01T00:55:25.433Z,22.20
2022-09-01T00:57:58.096Z,22.17
2022-09-01T01:00:30.489Z,22.24
2022-09-01T01:02:59.614Z,22.24
2022-09-01T01:05:34.151Z,22.27
2022-09-01T01:08:04.481Z,22.23
2022-09-01T01:10:35.891Z,22.26
2022-09-01T01:13:08.854Z,22.21
2022-09-01T01:15:37.801Z,22.19
2022-09-01T01:18:05.796Z,22.15
2022-09-01T01:20:52.842Z,22.16
2022-09-01T01:23:30.989Z,22.20
2022-09-01T01:26:01.817Z,22.16
2022-09-01T01:28:32.643Z,22.13
2022-09-01T01:31:06.755Z,22.09
2022-09-01T01:33:42.977Z,22.17
2022-09-01T01:36:13.496Z,22.14
2022-09-01T01:38:43.187Z,22.16
2022-09-01T01:41:14.546Z,22.10
2022-09-01T01:43:43.369Z,22.11
2022-09-01T01:46:12.399Z,22.08
2022-09-01T01:48:43.596Z,22.08
2022-09-01T01:51:14.022Z,22.04
2022-09-01T01:53:43.472Z,21.98
2022-09-01T01:56:12.926Z,22.04
2022-09-01T01:58:41.327Z,22.07
2022-09-01T02:01:12.612Z,22.07
2022-09-01T02:03:41.315Z,22.05
2022-09-01T02:06:12.075Z,22.06
2022-09-01T02:08:44.896Z,22.01
2022-09-01T02:11:17.638Z,22.05
2022-09-01T02:13:48.267Z,22.03
2022-09-01T02:16:23.664Z,21.99
2022-09-01T02:18:58.576Z,21.95
2022-09-01T02:21:34.656Z,21.99
2022-09-01T02:24:09.807Z,21.91
2022-09-01T02:26:55.514Z,21.89
2022-09-01T02:29:35.091Z,21.85
2022-09-01T02:32:17.391Z,21.84
2022-09-01T02:34:57.876Z,21.87
2022-09-01T02:37:30.052Z,21.88
2022-09-01T02:40:03.168Z,21.88
2022-09-01T02:42:35.288Z,21.90
2022-09-01T02:45:12.514Z,21.90
2022-09-01T02:47:52.323Z,21.88
2022-09-01T02:50:26.580Z,21.87
2022-09-01T02:53:03.809Z,21.86
2022-09-01T02:55:35.396Z,21.81
2022-09-01T02:58:11.064Z,21.86
2022-09-01T03:00:47.312Z,21.86
2022-09-01T03:03:20.066Z,21.81
2022-09-01T03:05:56.908Z,22.02
2022-09-01T03:08:28.701Z,21.82
2022-09-01T03:10:59.598Z,21.74
2022-09-01T03:13:32.137Z,21.73
2022-09-01T03:16:07.120Z,21.71
2022-09-01T03:18:41.224Z,21.74
2022-09-01T03:21:18.500Z,21.75
2022-09-01T03:23:51.912Z,21.75
2022-09-01T03:26:26.926Z,21.67
2022-09-01T03:29:01.819Z,21.65
2022-09-01T03:31:32.934Z,21.63
2022-09-01T03:34:05.958Z,21.83
2022-09-01T03:36:40.359Z,21.59
2022-09-01T03:39:16.348Z,21.56
2022-09-01T03:41:47.202Z,21.53
2022-09-01T03:44:20.708Z,21.46
2022-09-01T03:46:51.347Z,21.42
2022-09-01T03:49:28.593Z,21.40
2022-09-01T03:52:02.928Z,21.41
2022-09-01T03:54:50.302Z,21.43
2022-09-01T03:57:22.447Z,21.40
2022-09-01T03:59:55.206Z,21.41
2022-09-01T04:02:30.957Z,21.39
2022-09-01T04:05:02.009Z,21.45
2022-09-01T04:07:31.604Z,21.39
2022-09-01T04:09:59.592Z,21.30
2022-09-01T04:12:27.532Z,21.35
2022-09-01T04:14:56.865Z,21.27
2022-09-01T04:17:42.215Z,21.27
2022-09-01T04:20:10.766Z,21.27
2022-09-01T04:22:39.157Z,21.29
2022-09-01T04:25:08.999Z,21.30
2022-09-01T04:27:40.542Z,21.30
2022-09-01T04:30:11.325Z,21.29
2022-09-01T04:32:41.731Z,21.30
2022-09-01T04:35:11.636Z,21.31
2022-09-01T04:37:39.529Z,21.32
2022-09-01T04:40:10.023Z,21.32
2022-09-01T04:42:38.239Z,21.29
2022-09-01T04:45:11.329Z,21.26
2022-09-01T04:47:45.448Z,21.25
2022-09-01T04:50:17.413Z,21.24
2022-09-01T04:53:07.156Z,21.23
2022-09-01T04:55:43.708Z,21.18
2022-09-01T04:58:17.389Z,21.15
2022-09-01T05:00:48.249Z,21.16
2022-09-01T05:03:24.503Z,21.18
2022-09-01T05:06:06.446Z,21.14
2022-09-01T05:08:45.111Z,21.11
2022-09-01T05:11:24.165Z,21.10
2022-09-01T05:13:59.863Z,21.10
2022-09-01T05:16:28.944Z,21.10
2022-09-01T05:19:01.488Z,21.09
2022-09-01T05:21:35.229Z,21.05
2022-09-01T05:24:05.204Z,21.00
2022-09-01T05:29:17.096Z,21.06
2022-09-01T05:34:45.176Z,21.14
2022-09-01T05:37:15.689Z,21.13
2022-09-01T05:39:46.463Z,21.14
2022-09-01T05:42:17.432Z,21.11
2022-09-01T05:44:48.095Z,21.08
2022-09-01T05:47:22.531Z,21.06
2022-09-01T05:49:58.629Z,21.07
2022-09-01T05:52:27.320Z,21.28
2022-09-01T05:54:57.382Z,21.09
2022-09-01T05:57:35.295Z,21.06
2022-09-01T06:00:14.040Z,21.05
2022-09-01T06:02:49.634Z,21.08
2022-09-01T06:05:23.859Z,21.06
2022-09-01T06:07:57.676Z,21.08
2022-09-01T06:10:29.692Z,21.09
2022-09-01T06:13:02.643Z,21.08
2022-09-01T06:15:32.482Z,21.10
2022-09-01T06:18:02.175Z,21.10
2022-09-01T06:20:35.861Z,21.06
2022-09-01T06:23:08.582Z,21.09
2022-09-01T06:25:37.770Z,21.19
2022-09-01T06:28:12.207Z,21.05
2022-09-01T06:30:40.651Z,21.01
2022-09-01T06:33:13.698Z,21.00
2022-09-01T06:38:19.353Z,21.07
2022-09-01T06:40:51.162Z,21.08
2022-09-01T06:43:25.837Z,21.09
2022-09-01T06:45:55.229Z,21.10
2022-09-01T06:48:26.581Z,21.07
2022-09-01T06:51:19.584Z,21.07
2022-09-01T06:53:57.110Z,21.09
2022-09-01T06:56:42.780Z,21.12
2022-09-01T06:59:15.671Z,21.13
2022-09-01T07:01:53.429Z,21.17
2022-09-01T07:04:32.350Z,21.23
2022-09-01T07:10:24.890Z,21.23
2022-09-01T07:13:22.490Z,21.26
2022-09-01T07:18:57.980Z,21.31
2022-09-01T07:22:06.680Z,21.25
2022-09-01T07:24:20.272Z,21.25
2022-09-01T07:27:09.348Z,21.26
2022-09-01T07:29:39.329Z,21.27
2022-09-01T07:34:58.191Z,21.33
2022-09-01T07:43:44.803Z,21.39
2022-09-01T07:46:40.092Z,21.46
2022-09-01T07:52:03.838Z,21.48
2022-09-01T07:54:34.510Z,21.51
2022-09-01T07:57:05.472Z,21.51
2022-09-01T07:59:36.092Z,21.55
2022-09-01T08:02:11.710Z,21.59
2022-09-01T08:04:41.275Z,21.65
2022-09-01T08:07:15.432Z,21.70
2022-09-01T08:09:46.306Z,21.73
2022-09-01T08:12:20.291Z,21.70
2022-09-01T08:15:41.375Z,21.71
2022-09-01T08:17:51.683Z,21.73
2022-09-01T08:20:23.206Z,21.75
2022-09-01T08:23:06.399Z,21.80
2022-09-01T08:25:42.721Z,21.84
2022-09-01T08:28:16.186Z,21.85
2022-09-01T08:30:52.444Z,21.85
2022-09-01T08:33:22.910Z,21.83
2022-09-01T08:35:52.538Z,21.82
2022-09-01T08:38:22.846Z,21.82
2022-09-01T08:40:57.088Z,21.90
2022-09-01T08:43:45.736Z,21.94
2022-09-01T08:46:22.285Z,21.94
2022-09-01T08:52:17.189Z,22.06
2022-09-01T08:54:51.953Z,22.12
2022-09-01T08:57:25.753Z,22.10
2022-09-01T09:00:18.233Z,22.13
2022-09-01T09:03:00.373Z,22.18
2022-09-01T09:05:57.710Z,22.23
2022-09-01T09:08:54.274Z,22.32
2022-09-01T09:11:45.503Z,22.28
2022-09-01T09:14:30.882Z,22.33
2022-09-01T09:17:03.324Z,22.32
2022-09-01T09:19:37.043Z,22.32
2022-09-01T09:22:11.867Z,22.46
2022-09-01T09:24:51.113Z,22.52
2022-09-01T09:27:22.692Z,22.56
2022-09-01T09:29:55.347Z,22.63
2022-09-01T09:33:16.027Z,22.66
2022-09-01T09:35:37.954Z,22.71
2022-09-01T09:38:30.368Z,22.77
2022-09-01T09:41:20.325Z,22.74
2022-09-01T09:43:59.793Z,22.83
2022-09-01T09:46:38.609Z,22.80
2022-09-01T09:49:34.844Z,22.82
2022-09-01T09:52:20.064Z,22.84
2022-09-01T09:55:05.208Z,22.91
2022-09-01T09:57:42.278Z,22.91
2022-09-01T10:00:25.023Z,22.95
2022-09-01T10:02:59.517Z,23.10
2022-09-01T10:05:46.656Z,23.05
2022-09-01T10:08:37.880Z,23.09
2022-09-01T10:11:08.123Z,23.09
2022-09-01T10:13:36.956Z,23.10
2022-09-01T10:16:10.322Z,23.19
2022-09-01T10:18:43.166Z,23.16
2022-09-01T10:21:18.000Z,23.23
2022-09-01T10:23:47.117Z,23.23
2022-09-01T10:26:21.088Z,23.22
2022-09-01T10:29:01.451Z,23.35
2022-09-01T10:31:33.007Z,23.31
2022-09-01T10:34:08.025Z,23.35
2022-09-01T10:36:40.090Z,23.39
2022-09-01T10:39:22.182Z,23.46
2022-09-01T10:42:08.901Z,23.52
2022-09-01T10:45:00.193Z,23.58
2022-09-01T10:47:34.187Z,23.61
2022-09-01T10:50:10.003Z,23.64
2022-09-01T10:53:06.192Z,23.69
2022-09-01T10:55:49.837Z,23.65
2022-09-01T11:02:35.335Z,23.57
2022-09-01T11:05:20.313Z,23.56
2022-09-01T11:08:00.364Z,23.42
2022-09-01T11:10:52.616Z,23.45
2022-09-01T11:13:50.339Z,23.43
2022-09-01T11:16:53.706Z,23.50
2022-09-01T11:19:44.450Z,23.60
2022-09-01T11:22:28.426Z,23.65
2022-09-01T11:25:12.878Z,23.78
2022-09-01T11:28:17.826Z,23.80
2022-09-01T11:30:55.975Z,23.79
2022-09-01T11:33:35.800Z,23.80
2022-09-01T11:36:07.135Z,23.87
2022-09-01T11:38:49.451Z,23.89
2022-09-01T11:41:29.212Z,24.05
2022-09-01T11:44:01.059Z,24.02
2022-09-01T11:46:35.182Z,23.93
2022-09-01T11:49:10.229Z,23.90
2022-09-01T11:51:47.922Z,23.86
2022-09-01T11:54:18.747Z,23.98
2022-09-01T11:56:48.394Z,24.07
2022-09-01T11:59:35.085Z,24.19
2022-09-01T12:02:05.697Z,24.30
2022-09-01T12:04:39.165Z,24.40
2022-09-01T12:07:10.890Z,24.68
2022-09-01T12:09:43.797Z,24.71
2022-09-01T12:12:32.093Z,24.92
2022-09-01T12:15:07.764Z,25.01
2022-09-01T12:17:38.857Z,25.17
2022-09-01T12:20:31.022Z,25.29
2022-09-01T12:23:02.722Z,25.31
2022-09-01T12:25:34.269Z,25.37
2022-09-01T12:28:04.935Z,25.49
2022-09-01T12:30:39.505Z,25.60
2022-09-01T12:33:27.770Z,25.58
2022-09-01T12:36:22.637Z,25.63
2022-09-01T12:38:55.391Z,25.66
2022-09-01T12:41:36.163Z,25.73
2022-09-01T12:44:31.764Z,26.07
2022-09-01T12:47:07.830Z,26.06
2022-09-01T12:49:50.356Z,26.20
2022-09-01T12:52:26.624Z,26.39
2022-09-01T12:55:47.244Z,26.49
2022-09-01T12:58:06.949Z,26.55
2022-09-01T13:00:40.169Z,26.70
2022-09-01T13:03:15.618Z,26.90
2022-09-01T13:05:47.764Z,26.94
2022-09-01T13:08:20.163Z,26.97
2022-09-01T13:10:51.697Z,26.95
2022-09-01T13:13:21.645Z,27.11
2022-09-01T13:15:51.734Z,27.10
2022-09-01T13:18:23.156Z,27.14
2022-09-01T13:20:53.171Z,27.11
2022-09-01T13:23:22.480Z,27.17
2022-09-01T13:25:50.757Z,27.24
2022-09-01T13:28:19.548Z,27.40
2022-09-01T13:31:28.611Z,27.43
2022-09-01T13:36:51.604Z,27.36
2022-09-01T13:39:20.787Z,27.38
2022-09-01T13:41:49.316Z,27.55
2022-09-01T13:44:18.517Z,27.66
2022-09-01T13:50:06.603Z,27.86
2022-09-01T13:52:25.917Z,27.84
2022-09-01T13:54:54.489Z,27.87
2022-09-01T13:57:22.533Z,28.01
2022-09-01T13:59:50.521Z,28.12
2022-09-01T14:02:18.726Z,28.21
2022-09-01T14:04:48.783Z,28.04
2022-09-01T14:07:18.929Z,27.77
2022-09-01T14:09:49.435Z,27.50
2022-09-01T14:12:19.642Z,27.17
2022-09-01T14:17:40.888Z,27.14
2022-09-01T14:20:16.680Z,26.88
2022-09-01T14:22:49.050Z,26.65
2022-09-01T14:25:21.819Z,26.51
2022-09-01T14:27:53.895Z,26.44
2022-09-01T14:30:31.228Z,26.56
2022-09-01T14:33:03.484Z,26.89
2022-09-01T14:35:35.240Z,26.97
2022-09-01T14:38:05.571Z,26.93
2022-09-01T14:40:37.853Z,26.83
2022-09-01T14:43:16.172Z,26.68
2022-09-01T14:45:48.462Z,26.71
2022-09-01T14:48:18.640Z,26.59
2022-09-01T14:50:51.354Z,26.53
2022-09-01T14:53:23.172Z,26.57
2022-09-01T14:55:57.076Z,26.77
2022-09-01T14:58:30.986Z,26.77
2022-09-01T15:01:17.444Z,26.74
2022-09-01T15:03:51.310Z,26.89
2022-09-01T15:06:25.112Z,26.98
2022-09-01T15:08:56.624Z,27.17
2022-09-01T15:11:28.898Z,27.20
2022-09-01T15:14:00.536Z,27.11
2022-09-01T15:16:36.156Z,27.04
2022-09-01T15:19:05.522Z,27.01
2022-09-01T15:21:39.879Z,26.82
2022-09-01T15:24:11.979Z,26.69
2022-09-01T15:26:44.358Z,26.71
2022-09-01T15:29:13.572Z,26.67
2022-09-01T15:31:44.289Z,26.68
2022-09-01T15:34:17.063Z,26.74
2022-09-01T15:36:48.553Z,26.75
2022-09-01T15:39:21.411Z,26.76
2022-09-01T15:41:51.543Z,26.73
2022-09-01T15:44:22.017Z,26.85
2022-09-01T15:46:53.683Z,26.96
2022-09-01T15:49:22.977Z,26.95
2022-09-01T15:51:56.917Z,27.07
2022-09-01T15:54:30.653Z,27.24
2022-09-01T15:57:01.838Z,27.37
2022-09-01T15:59:36.218Z,27.43
2022-09-01T16:02:07.536Z,27.29
2022-09-01T16:04:37.861Z,27.16
2022-09-01T16:07:08.466Z,27.07
2022-09-01T16:09:37.090Z,26.97
2022-09-01T16:12:06.116Z,26.84
2022-09-01T16:14:34.418Z,26.74
2022-09-01T16:17:05.285Z,26.76
2022-09-01T16:19:48.714Z,26.85
2022-09-01T16:22:24.137Z,26.89
2022-09-01T16:24:56.200Z,26.84
2022-09-01T16:27:31.651Z,26.85
2022-09-01T16:30:04.718Z,26.81
2022-09-01T16:32:33.689Z,26.74
2022-09-01T16:35:04.156Z,26.68
2022-09-01T16:37:44.901Z,26.64
2022-09-01T16:40:23.906Z,26.57
2022-09-01T16:43:03.077Z,26.50
2022-09-01T16:45:43.745Z,26.48
2022-09-01T16:48:20.970Z,26.41
2022-09-01T16:50:58.367Z,26.35
2022-09-01T16:53:51.332Z,26.31
2022-09-01T16:56:30.339Z,26.23
2022-09-01T16:59:10.253Z,26.16
2022-09-01T17:01:49.026Z,26.11
2022-09-01T17:04:33.614Z,26.03
2022-09-01T17:07:09.668Z,25.88
2022-09-01T17:09:43.127Z,25.83
2022-09-01T17:12:27.718Z,25.80
2022-09-01T17:14:59.726Z,25.78
2022-09-01T17:17:35.638Z,25.77
2022-09-01T17:20:06.910Z,25.73
2022-09-01T17:22:38.543Z,25.74
2022-09-01T17:25:13.741Z,25.72
2022-09-01T17:27:51.880Z,25.74
2022-09-01T17:30:22.313Z,25.68
2022-09-01T17:33:12.110Z,25.64
2022-09-01T17:36:00.335Z,25.61
2022-09-01T17:53:38.175Z,25.41
2022-09-01T17:56:34.900Z,25.32
2022-09-01T17:59:12.304Z,25.27
2022-09-01T18:01:47.912Z,25.26
2022-09-01T18:04:45.996Z,25.33
2022-09-01T18:07:51.949Z,25.32
2022-09-01T18:10:29.684Z,25.24
2022-09-01T18:13:06.046Z,25.24
2022-09-01T18:15:51.858Z,25.27
2022-09-01T18:18:34.960Z,25.24
2022-09-01T18:21:10.001Z,25.21
2022-09-01T18:23:43.036Z,25.13
2022-09-01T18:26:21.415Z,25.09
2022-09-01T18:28:54.999Z,24.99
2022-09-01T18:31:52.329Z,24.96
2022-09-01T18:35:08.149Z,24.97
2022-09-01T18:37:49.382Z,24.90
2022-09-01T18:40:29.099Z,24.84
2022-09-01T18:43:09.915Z,24.73
2022-09-01T18:45:51.480Z,24.68
2022-09-01T18:48:33.492Z,24.68
2022-09-01T18:51:09.658Z,24.62
2022-09-01T18:53:48.489Z,24.60
2022-09-01T18:56:37.463Z,24.56
2022-09-01T18:59:34.786Z,24.47
2022-09-01T19:02:26.084Z,24.50
2022-09-01T19:04:59.893Z,24.47
2022-09-01T19:07:36.884Z,24.35
2022-09-01T19:10:10.383Z,24.30
2022-09-01T19:12:49.932Z,24.20
2022-09-01T19:15:27.813Z,24.20
2022-09-01T19:18:13.288Z,24.25
2022-09-01T19:20:50.011Z,24.24
2022-09-01T19:23:24.259Z,24.21
2022-09-01T19:26:03.557Z,24.21
2022-09-01T19:28:51.213Z,24.22
2022-09-01T19:31:25.486Z,24.21
2022-09-01T19:33:59.330Z,24.18
2022-09-01T19:36:41.235Z,24.11
2022-09-01T19:39:15.196Z,24.13
2022-09-01T19:41:49.852Z,24.12
2022-09-01T19:44:28.441Z,24.10
2022-09-01T19:47:02.342Z,24.12
2022-09-01T19:49:43.702Z,24.08
2022-09-01T19:52:22.973Z,23.99
2022-09-01T19:55:00.455Z,24.00
2022-09-01T19:57:36.871Z,24.03
2022-09-01T20:00:14.716Z,23.99
2022-09-01T20:02:53.846Z,23.94
2022-09-01T20:05:31.732Z,23.89
2022-09-01T20:08:07.626Z,23.85
2022-09-01T20:10:57.955Z,23.93
2022-09-01T20:13:43.915Z,23.87
2022-09-01T20:16:24.932Z,23.88
2022-09-01T20:19:00.057Z,23.86
2022-09-01T20:21:31.396Z,23.82
2022-09-01T20:24:04.382Z,23.80
2022-09-01T20:26:40.496Z,23.87
2022-09-01T20:29:16.464Z,23.83
2022-09-01T20:31:49.157Z,23.83
2022-09-01T20:34:26.316Z,23.78
2022-09-01T20:37:00.264Z,23.74
2022-09-01T20:39:55.097Z,23.74
2022-09-01T20:42:34.727Z,23.68
2022-09-01T20:45:08.889Z,23.65
2022-09-01T20:47:37.017Z,23.58
2022-09-01T20:50:12.705Z,23.60
2022-09-01T20:52:57.414Z,23.63
2022-09-01T20:55:30.527Z,23.56
2022-09-01T20:58:08.539Z,23.60
2022-09-01T21:00:46.486Z,23.60
2022-09-01T21:03:33.906Z,23.56
2022-09-01T21:06:08.773Z,23.57
2022-09-01T21:08:45.016Z,23.57
2022-09-01T21:11:31.550Z,23.47
2022-09-01T21:14:14.190Z,23.52
2022-09-01T21:17:01.372Z,23.53
2022-09-01T21:19:40.867Z,23.52
2022-09-01T21:22:12.030Z,23.50
2022-09-01T21:24:43.599Z,23.51
2022-09-01T21:27:17.540Z,23.52
2022-09-01T21:29:54.533Z,23.54
2022-09-01T21:32:25.130Z,23.51
2022-09-01T21:34:56.842Z,23.43
2022-09-01T21:37:30.678Z,23.44
2022-09-01T21:40:05.184Z,23.37
2022-09-01T21:42:42.438Z,23.38
2022-09-01T21:45:20.299Z,23.40
2022-09-01T21:47:52.201Z,23.39
2022-09-01T21:50:25.431Z,23.38
2022-09-01T21:52:54.889Z,23.35
2022-09-01T21:55:27.979Z,23.39
2022-09-01T21:57:58.975Z,23.39
2022-09-01T22:00:30.483Z,23.34
2022-09-01T22:03:04.963Z,23.30
2022-09-01T22:05:36.088Z,23.32
2022-09-01T22:08:08.359Z,23.30
2022-09-01T22:10:43.353Z,23.31
2022-09-01T22:13:12.468Z,23.29
2022-09-01T22:15:45.378Z,23.29
2022-09-01T22:18:14.637Z,23.22
2022-09-01T22:20:43.968Z,23.20
2022-09-01T22:23:13.761Z,23.22
2022-09-01T22:25:45.267Z,23.20
2022-09-01T22:28:14.374Z,23.18
2022-09-01T22:30:47.948Z,23.18
2022-09-01T22:33:17.497Z,23.19
2022-09-01T22:35:48.266Z,23.12
2022-09-01T22:38:17.218Z,23.12
2022-09-01T22:40:47.831Z,23.10
2022-09-01T22:43:37.959Z,23.11
2022-09-01T22:46:07.245Z,23.07
2022-09-01T22:48:35.729Z,23.00
2022-09-01T22:51:08.339Z,22.91
2022-09-01T22:53:37.349Z,22.90
2022-09-01T22:56:12.909Z,22.87
2022-09-01T22:58:42.094Z,22.82
2022-09-01T23:01:12.714Z,22.81
2022-09-01T23:03:41.015Z,22.80
2022-09-01T23:06:11.109Z,22.76
2022-09-01T23:08:40.269Z,22.75
2022-09-01T23:11:09.339Z,22.72
2022-09-01T23:13:39.582Z,22.73
2022-09-01T23:16:10.006Z,22.69
2022-09-01T23:18:45.579Z,22.65
2022-09-01T23:21:18.800Z,22.63
2022-09-01T23:23:58.355Z,22.60
2022-09-01T23:26:28.933Z,22.63
2022-09-01T23:28:59.960Z,22.64
2022-09-01T23:31:31.939Z,22.64
2022-09-01T23:34:02.480Z,22.61
2022-09-01T23:36:31.535Z,22.65
2022-09-01T23:39:01.793Z,22.59
2022-09-01T23:41:37.974Z,22.53
2022-09-01T23:44:15.670Z,22.54
2022-09-01T23:46:48.548Z,22.44
2022-09-01T23:49:19.197Z,22.43
2022-09-01T23:51:52.223Z,22.44
2022-09-01T23:54:23.395Z,22.46
2022-09-01T23:56:53.568Z,22.42
2022-09-01T23:59:24.446Z,22.41
